sensor_id;sensor_type;location;lat;lon;timestamp;P1;durP1;ratioP1;P2;durP2;ratioP2
19733;SDS011;10018;51.230;7.860;2023-05-16T00:02:03;30.40;;;19.43;;
19733;SDS011;10018;51.230;7.860;2023-05-16T00:04:29;29.33;;;18.37;;
19733;SDS011;10018;51.230;7.860;2023-05-16T00:06:56;30.73;;;19.53;;
19733;SDS011;10018;51.230;7.860;2023-05-16T00:09:22;32.80;;;20.73;;
19733;SDS011;10018;51.230;7.860;2023-05-16T00:11:48;35.10;;;20.07;;
19733;SDS011;10018;51.230;7.860;2023-05-16T00:14:14;32.03;;;20.30;;
19733;SDS011;10018;51.230;7.860;2023-05-16T00:16:39;29.90;;;19.53;;
19733;SDS011;10018;51.230;7.860;2023-05-16T00:19:07;33.80;;;20.47;;
19733;SDS011;10018;51.230;7.860;2023-05-16T00:21:34;33.30;;;21.17;;
19733;SDS011;10018;51.230;7.860;2023-05-16T00:23:59;35.10;;;20.60;;
19733;SDS011;10018;51.230;7.860;2023-05-16T00:26:25;33.93;;;20.50;;
19733;SDS011;10018;51.230;7.860;2023-05-16T00:28:51;31.17;;;20.10;;
19733;SDS011;10018;51.230;7.860;2023-05-16T00:31:16;32.67;;;20.03;;
19733;SDS011;10018;51.230;7.860;2023-05-16T00:33:42;30.27;;;18.57;;
19733;SDS011;10018;51.230;7.860;2023-05-16T00:36:07;27.90;;;18.47;;
19733;SDS011;10018;51.230;7.860;2023-05-16T00:38:33;32.03;;;19.60;;
19733;SDS011;10018;51.230;7.860;2023-05-16T00:40:59;24.63;;;17.03;;
19733;SDS011;10018;51.230;7.860;2023-05-16T00:43:24;23.87;;;16.87;;
19733;SDS011;10018;51.230;7.860;2023-05-16T00:45:50;26.73;;;17.67;;
19733;SDS011;10018;51.230;7.860;2023-05-16T00:48:15;23.97;;;17.37;;
19733;SDS011;10018;51.230;7.860;2023-05-16T00:50:41;18.90;;;13.60;;
19733;SDS011;10018;51.230;7.860;2023-05-16T00:53:07;14.37;;;9.00;;
19733;SDS011;10018;51.230;7.860;2023-05-16T00:55:33;7.63;;;4.70;;
19733;SDS011;10018;51.230;7.860;2023-05-16T00:57:59;6.30;;;4.10;;
19733;SDS011;10018;51.230;7.860;2023-05-16T01:00:25;9.57;;;3.93;;
19733;SDS011;10018;51.230;7.860;2023-05-16T01:02:51;7.70;;;3.80;;
19733;SDS011;10018;51.230;7.860;2023-05-16T01:05:20;4.57;;;2.73;;
19733;SDS011;10018;51.230;7.860;2023-05-16T01:07:45;4.60;;;2.80;;
19733;SDS011;10018;51.230;7.860;2023-05-16T01:10:11;10.07;;;2.70;;
19733;SDS011;10018;51.230;7.860;2023-05-16T01:12:59;3.63;;;2.37;;
19733;SDS011;10018;51.230;7.860;2023-05-16T01:15:37;4.40;;;2.63;;
19733;SDS011;10018;51.230;7.860;2023-05-16T01:23:32;4.30;;;2.40;;
19733;SDS011;10018;51.230;7.860;2023-05-16T01:26:22;3.80;;;2.50;;
19733;SDS011;10018;51.230;7.860;2023-05-16T01:28:52;4.73;;;2.90;;
19733;SDS011;10018;51.230;7.860;2023-05-16T01:31:18;5.37;;;2.50;;
19733;SDS011;10018;51.230;7.860;2023-05-16T01:33:45;4.43;;;2.90;;
19733;SDS011;10018;51.230;7.860;2023-05-16T01:36:30;4.17;;;2.63;;
19733;SDS011;10018;51.230;7.860;2023-05-16T01:39:06;6.80;;;3.00;;
19733;SDS011;10018;51.230;7.860;2023-05-16T01:41:47;4.97;;;3.23;;
19733;SDS011;10018;51.230;7.860;2023-05-16T01:44:36;7.80;;;2.90;;
19733;SDS011;10018;51.230;7.860;2023-05-16T01:47:11;4.30;;;2.90;;
19733;SDS011;10018;51.230;7.860;2023-05-16T01:49:40;5.10;;;3.30;;
19733;SDS011;10018;51.230;7.860;2023-05-16T01:52:15;5.00;;;3.10;;
19733;SDS011;10018;51.230;7.860;2023-05-16T01:54:55;6.30;;;3.30;;
19733;SDS011;10018;51.230;7.860;2023-05-16T01:57:23;5.60;;;3.60;;
19733;SDS011;10018;51.230;7.860;2023-05-16T01:59:50;5.40;;;3.47;;
19733;SDS011;10018;51.230;7.860;2023-05-16T02:02:17;5.00;;;3.37;;
19733;SDS011;10018;51.230;7.860;2023-05-16T02:04:43;6.30;;;4.30;;
19733;SDS011;10018;51.230;7.860;2023-05-16T02:07:08;5.97;;;3.87;;
19733;SDS011;10018;51.230;7.860;2023-05-16T02:09:34;6.80;;;4.63;;
19733;SDS011;10018;51.230;7.860;2023-05-16T02:12:00;7.97;;;4.77;;
19733;SDS011;10018;51.230;7.860;2023-05-16T02:14:26;6.40;;;3.90;;
19733;SDS011;10018;51.230;7.860;2023-05-16T02:16:51;6.53;;;4.40;;
19733;SDS011;10018;51.230;7.860;2023-05-16T02:19:17;6.33;;;4.40;;
19733;SDS011;10018;51.230;7.860;2023-05-16T02:21:43;7.67;;;4.20;;
19733;SDS011;10018;51.230;7.860;2023-05-16T02:24:08;6.50;;;4.50;;
19733;SDS011;10018;51.230;7.860;2023-05-16T02:26:34;8.20;;;5.13;;
19733;SDS011;10018;51.230;7.860;2023-05-16T02:29:02;7.10;;;4.90;;
19733;SDS011;10018;51.230;7.860;2023-05-16T02:31:31;7.43;;;4.67;;
19733;SDS011;10018;51.230;7.860;2023-05-16T02:33:58;7.77;;;5.13;;
19733;SDS011;10018;51.230;7.860;2023-05-16T02:36:24;8.87;;;4.50;;
19733;SDS011;10018;51.230;7.860;2023-05-16T02:38:50;6.90;;;4.00;;
19733;SDS011;10018;51.230;7.860;2023-05-16T02:43:43;5.93;;;3.20;;
19733;SDS011;10018;51.230;7.860;2023-05-16T02:46:30;4.27;;;3.03;;
19733;SDS011;10018;51.230;7.860;2023-05-16T02:48:58;3.77;;;2.50;;
19733;SDS011;10018;51.230;7.860;2023-05-16T02:51:25;4.03;;;2.70;;
19733;SDS011;10018;51.230;7.860;2023-05-16T02:53:52;3.70;;;2.30;;
19733;SDS011;10018;51.230;7.860;2023-05-16T02:56:18;3.83;;;2.57;;
19733;SDS011;10018;51.230;7.860;2023-05-16T02:58:48;3.73;;;2.30;;
19733;SDS011;10018;51.230;7.860;2023-05-16T03:01:14;4.13;;;2.40;;
19733;SDS011;10018;51.230;7.860;2023-05-16T03:03:41;3.50;;;2.00;;
19733;SDS011;10018;51.230;7.860;2023-05-16T03:06:06;3.77;;;2.20;;
19733;SDS011;10018;51.230;7.860;2023-05-16T03:08:32;2.47;;;1.67;;
19733;SDS011;10018;51.230;7.860;2023-05-16T03:10:59;1.93;;;1.13;;
19733;SDS011;10018;51.230;7.860;2023-05-16T03:13:25;2.20;;;1.33;;
19733;SDS011;10018;51.230;7.860;2023-05-16T03:15:51;2.07;;;1.20;;
19733;SDS011;10018;51.230;7.860;2023-05-16T03:18:17;1.63;;;1.00;;
19733;SDS011;10018;51.230;7.860;2023-05-16T03:20:42;1.83;;;1.10;;
19733;SDS011;10018;51.230;7.860;2023-05-16T03:23:08;3.60;;;1.10;;
19733;SDS011;10018;51.230;7.860;2023-05-16T03:25:34;1.17;;;0.70;;
19733;SDS011;10018;51.230;7.860;2023-05-16T03:28:00;2.03;;;0.80;;
19733;SDS011;10018;51.230;7.860;2023-05-16T03:30:26;1.50;;;0.90;;
19733;SDS011;10018;51.230;7.860;2023-05-16T03:32:52;2.20;;;0.80;;
19733;SDS011;10018;51.230;7.860;2023-05-16T03:35:17;1.10;;;0.80;;
19733;SDS011;10018;51.230;7.860;2023-05-16T03:37:43;1.70;;;0.90;;
19733;SDS011;10018;51.230;7.860;2023-05-16T03:40:09;1.50;;;0.87;;
19733;SDS011;10018;51.230;7.860;2023-05-16T03:42:35;1.80;;;0.90;;
19733;SDS011;10018;51.230;7.860;2023-05-16T03:45:06;2.97;;;1.00;;
19733;SDS011;10018;51.230;7.860;2023-05-16T03:47:34;2.03;;;1.00;;
19733;SDS011;10018;51.230;7.860;2023-05-16T03:50:00;2.60;;;1.60;;
19733;SDS011;10018;51.230;7.860;2023-05-16T03:52:25;3.57;;;1.60;;
19733;SDS011;10018;51.230;7.860;2023-05-16T03:54:51;3.57;;;1.43;;
19733;SDS011;10018;51.230;7.860;2023-05-16T03:57:17;2.20;;;1.30;;
19733;SDS011;10018;51.230;7.860;2023-05-16T03:59:42;3.40;;;1.60;;
19733;SDS011;10018;51.230;7.860;2023-05-16T04:02:08;4.37;;;1.90;;
19733;SDS011;10018;51.230;7.860;2023-05-16T04:04:34;3.73;;;1.80;;
19733;SDS011;10018;51.230;7.860;2023-05-16T04:07:00;4.20;;;2.33;;
19733;SDS011;10018;51.230;7.860;2023-05-16T04:09:26;3.97;;;1.90;;
19733;SDS011;10018;51.230;7.860;2023-05-16T04:11:52;5.00;;;2.40;;
19733;SDS011;10018;51.230;7.860;2023-05-16T04:14:20;7.27;;;2.50;;
19733;SDS011;10018;51.230;7.860;2023-05-16T04:16:45;5.23;;;2.70;;
19733;SDS011;10018;51.230;7.860;2023-05-16T04:19:11;7.03;;;2.80;;
19733;SDS011;10018;51.230;7.860;2023-05-16T04:21:37;7.27;;;2.43;;
19733;SDS011;10018;51.230;7.860;2023-05-16T04:24:05;6.20;;;3.07;;
19733;SDS011;10018;51.230;7.860;2023-05-16T04:26:31;6.93;;;3.00;;
19733;SDS011;10018;51.230;7.860;2023-05-16T04:28:56;5.37;;;3.03;;
19733;SDS011;10018;51.230;7.860;2023-05-16T04:31:22;7.60;;;2.87;;
19733;SDS011;10018;51.230;7.860;2023-05-16T04:33:49;6.30;;;2.73;;
19733;SDS011;10018;51.230;7.860;2023-05-16T04:36:15;7.00;;;3.20;;
19733;SDS011;10018;51.230;7.860;2023-05-16T04:38:40;10.37;;;3.40;;
19733;SDS011;10018;51.230;7.860;2023-05-16T04:41:06;5.37;;;2.87;;
19733;SDS011;10018;51.230;7.860;2023-05-16T04:43:32;7.50;;;2.90;;
19733;SDS011;10018;51.230;7.860;2023-05-16T04:46:00;9.97;;;3.87;;
19733;SDS011;10018;51.230;7.860;2023-05-16T04:48:26;8.97;;;3.87;;
19733;SDS011;10018;51.230;7.860;2023-05-16T04:50:51;8.03;;;3.50;;
19733;SDS011;10018;51.230;7.860;2023-05-16T04:53:19;7.77;;;3.63;;
19733;SDS011;10018;51.230;7.860;2023-05-16T04:55:45;10.40;;;4.17;;
19733;SDS011;10018;51.230;7.860;2023-05-16T04:58:11;12.40;;;4.23;;
19733;SDS011;10018;51.230;7.860;2023-05-16T05:00:37;11.83;;;4.23;;
19733;SDS011;10018;51.230;7.860;2023-05-16T05:03:05;9.70;;;4.37;;
19733;SDS011;10018;51.230;7.860;2023-05-16T05:05:31;13.80;;;4.83;;
19733;SDS011;10018;51.230;7.860;2023-05-16T05:08:01;11.50;;;4.47;;
19733;SDS011;10018;51.230;7.860;2023-05-16T05:10:27;14.20;;;4.60;;
19733;SDS011;10018;51.230;7.860;2023-05-16T05:12:52;15.57;;;4.50;;
19733;SDS011;10018;51.230;7.860;2023-05-16T05:15:18;12.70;;;4.10;;
19733;SDS011;10018;51.230;7.860;2023-05-16T05:17:44;14.07;;;5.30;;
19733;SDS011;10018;51.230;7.860;2023-05-16T05:20:10;13.87;;;4.50;;
19733;SDS011;10018;51.230;7.860;2023-05-16T05:22:36;13.37;;;4.60;;
19733;SDS011;10018;51.230;7.860;2023-05-16T05:25:01;15.87;;;4.30;;
19733;SDS011;10018;51.230;7.860;2023-05-16T05:27:27;18.47;;;4.83;;
19733;SDS011;10018;51.230;7.860;2023-05-16T05:29:53;12.80;;;4.60;;
19733;SDS011;10018;51.230;7.860;2023-05-16T05:32:18;22.37;;;5.10;;
19733;SDS011;10018;51.230;7.860;2023-05-16T05:34:44;15.73;;;5.33;;
19733;SDS011;10018;51.230;7.860;2023-05-16T05:37:10;14.87;;;4.33;;
19733;SDS011;10018;51.230;7.860;2023-05-16T05:39:35;18.30;;;4.70;;
19733;SDS011;10018;51.230;7.860;2023-05-16T05:42:01;25.60;;;4.93;;
19733;SDS011;10018;51.230;7.860;2023-05-16T05:44:29;16.83;;;4.57;;
19733;SDS011;10018;51.230;7.860;2023-05-16T05:46:54;20.07;;;4.90;;
19733;SDS011;10018;51.230;7.860;2023-05-16T05:49:21;16.60;;;4.77;;
19733;SDS011;10018;51.230;7.860;2023-05-16T05:51:48;13.33;;;4.10;;
19733;SDS011;10018;51.230;7.860;2023-05-16T05:54:17;18.70;;;4.07;;
19733;SDS011;10018;51.230;7.860;2023-05-16T05:56:46;14.00;;;3.77;;
19733;SDS011;10018;51.230;7.860;2023-05-16T05:59:14;17.73;;;3.83;;
19733;SDS011;10018;51.230;7.860;2023-05-16T06:01:43;18.43;;;4.57;;
19733;SDS011;10018;51.230;7.860;2023-05-16T06:04:08;19.13;;;3.80;;
19733;SDS011;10018;51.230;7.860;2023-05-16T06:06:35;22.63;;;4.00;;
19733;SDS011;10018;51.230;7.860;2023-05-16T06:09:01;15.60;;;3.70;;
19733;SDS011;10018;51.230;7.860;2023-05-16T06:11:27;15.73;;;4.27;;
19733;SDS011;10018;51.230;7.860;2023-05-16T06:13:53;18.57;;;4.30;;
19733;SDS011;10018;51.230;7.860;2023-05-16T06:16:22;16.43;;;4.13;;
19733;SDS011;10018;51.230;7.860;2023-05-16T06:18:51;10.03;;;3.70;;
19733;SDS011;10018;51.230;7.860;2023-05-16T06:21:19;17.67;;;3.53;;
19733;SDS011;10018;51.230;7.860;2023-05-16T06:23:47;12.40;;;3.03;;
19733;SDS011;10018;51.230;7.860;2023-05-16T06:26:13;12.13;;;3.13;;
19733;SDS011;10018;51.230;7.860;2023-05-16T06:28:39;22.70;;;3.80;;
19733;SDS011;10018;51.230;7.860;2023-05-16T06:31:04;21.57;;;3.47;;
19733;SDS011;10018;51.230;7.860;2023-05-16T06:33:30;14.67;;;3.43;;
19733;SDS011;10018;51.230;7.860;2023-05-16T06:35:55;17.93;;;3.90;;
19733;SDS011;10018;51.230;7.860;2023-05-16T06:38:21;16.97;;;3.93;;
19733;SDS011;10018;51.230;7.860;2023-05-16T06:40:46;15.40;;;3.40;;
19733;SDS011;10018;51.230;7.860;2023-05-16T06:43:13;13.90;;;3.40;;
19733;SDS011;10018;51.230;7.860;2023-05-16T06:45:41;16.90;;;3.77;;
19733;SDS011;10018;51.230;7.860;2023-05-16T06:48:12;17.77;;;3.60;;
19733;SDS011;10018;51.230;7.860;2023-05-16T06:50:41;14.43;;;3.30;;
19733;SDS011;10018;51.230;7.860;2023-05-16T06:53:07;14.97;;;3.50;;
19733;SDS011;10018;51.230;7.860;2023-05-16T06:55:33;11.07;;;2.67;;
19733;SDS011;10018;51.230;7.860;2023-05-16T06:57:58;15.90;;;3.07;;
19733;SDS011;10018;51.230;7.860;2023-05-16T07:00:26;10.73;;;2.93;;
19733;SDS011;10018;51.230;7.860;2023-05-16T07:02:52;15.57;;;3.70;;
19733;SDS011;10018;51.230;7.860;2023-05-16T07:05:17;15.77;;;3.40;;
19733;SDS011;10018;51.230;7.860;2023-05-16T07:07:43;15.67;;;2.47;;
19733;SDS011;10018;51.230;7.860;2023-05-16T07:10:09;18.27;;;2.90;;
19733;SDS011;10018;51.230;7.860;2023-05-16T07:12:35;9.77;;;2.30;;
19733;SDS011;10018;51.230;7.860;2023-05-16T07:15:03;11.13;;;2.70;;
19733;SDS011;10018;51.230;7.860;2023-05-16T07:17:30;14.63;;;2.70;;
19733;SDS011;10018;51.230;7.860;2023-05-16T07:19:55;10.60;;;2.17;;
19733;SDS011;10018;51.230;7.860;2023-05-16T07:22:21;9.50;;;2.33;;
19733;SDS011;10018;51.230;7.860;2023-05-16T07:24:46;12.77;;;2.27;;
19733;SDS011;10018;51.230;7.860;2023-05-16T07:27:12;14.13;;;2.40;;
19733;SDS011;10018;51.230;7.860;2023-05-16T07:29:40;10.73;;;2.20;;
19733;SDS011;10018;51.230;7.860;2023-05-16T07:32:06;12.37;;;2.37;;
19733;SDS011;10018;51.230;7.860;2023-05-16T07:34:34;12.47;;;1.97;;
19733;SDS011;10018;51.230;7.860;2023-05-16T07:37:02;10.63;;;2.10;;
19733;SDS011;10018;51.230;7.860;2023-05-16T07:39:29;13.13;;;2.10;;
19733;SDS011;10018;51.230;7.860;2023-05-16T07:41:54;9.47;;;2.20;;
19733;SDS011;10018;51.230;7.860;2023-05-16T07:44:20;12.90;;;2.43;;
19733;SDS011;10018;51.230;7.860;2023-05-16T07:46:46;15.47;;;2.10;;
19733;SDS011;10018;51.230;7.860;2023-05-16T07:49:12;13.47;;;2.53;;
19733;SDS011;10018;51.230;7.860;2023-05-16T07:51:40;15.37;;;2.30;;
19733;SDS011;10018;51.230;7.860;2023-05-16T07:54:05;9.17;;;1.87;;
19733;SDS011;10018;51.230;7.860;2023-05-16T07:56:31;11.67;;;2.57;;
19733;SDS011;10018;51.230;7.860;2023-05-16T07:58:57;14.67;;;2.70;;
19733;SDS011;10018;51.230;7.860;2023-05-16T08:01:23;11.13;;;1.93;;
19733;SDS011;10018;51.230;7.860;2023-05-16T08:03:48;15.87;;;2.20;;
19733;SDS011;10018;51.230;7.860;2023-05-16T08:06:14;12.63;;;2.07;;
19733;SDS011;10018;51.230;7.860;2023-05-16T08:08:40;9.63;;;2.10;;
19733;SDS011;10018;51.230;7.860;2023-05-16T08:11:05;15.00;;;2.83;;
19733;SDS011;10018;51.230;7.860;2023-05-16T08:13:31;6.27;;;1.87;;
19733;SDS011;10018;51.230;7.860;2023-05-16T08:15:56;11.43;;;2.30;;
19733;SDS011;10018;51.230;7.860;2023-05-16T08:18:22;9.77;;;1.90;;
19733;SDS011;10018;51.230;7.860;2023-05-16T08:20:48;13.00;;;1.90;;
19733;SDS011;10018;51.230;7.860;2023-05-16T08:23:13;10.73;;;1.73;;
19733;SDS011;10018;51.230;7.860;2023-05-16T08:25:39;6.73;;;2.07;;
19733;SDS011;10018;51.230;7.860;2023-05-16T08:28:04;11.07;;;1.70;;
19733;SDS011;10018;51.230;7.860;2023-05-16T08:30:31;8.37;;;1.67;;
19733;SDS011;10018;51.230;7.860;2023-05-16T08:32:57;10.73;;;1.80;;
19733;SDS011;10018;51.230;7.860;2023-05-16T08:35:22;11.93;;;1.70;;
19733;SDS011;10018;51.230;7.860;2023-05-16T08:37:48;7.87;;;1.50;;
19733;SDS011;10018;51.230;7.860;2023-05-16T08:40:14;11.93;;;2.10;;
19733;SDS011;10018;51.230;7.860;2023-05-16T08:42:40;9.70;;;1.90;;
19733;SDS011;10018;51.230;7.860;2023-05-16T08:45:06;10.43;;;1.83;;
19733;SDS011;10018;51.230;7.860;2023-05-16T08:47:32;9.10;;;2.00;;
19733;SDS011;10018;51.230;7.860;2023-05-16T08:50:01;7.47;;;1.40;;
19733;SDS011;10018;51.230;7.860;2023-05-16T08:52:29;10.80;;;1.90;;
19733;SDS011;10018;51.230;7.860;2023-05-16T08:55:00;10.43;;;1.60;;
19733;SDS011;10018;51.230;7.860;2023-05-16T08:57:29;9.17;;;2.10;;
19733;SDS011;10018;51.230;7.860;2023-05-16T08:59:56;8.33;;;1.90;;
19733;SDS011;10018;51.230;7.860;2023-05-16T09:02:22;8.63;;;1.60;;
19733;SDS011;10018;51.230;7.860;2023-05-16T09:04:48;6.73;;;1.50;;
19733;SDS011;10018;51.230;7.860;2023-05-16T09:07:14;6.93;;;1.40;;
19733;SDS011;10018;51.230;7.860;2023-05-16T09:09:40;11.17;;;1.50;;
19733;SDS011;10018;51.230;7.860;2023-05-16T09:12:06;6.73;;;1.43;;
19733;SDS011;10018;51.230;7.860;2023-05-16T09:14:32;7.30;;;1.63;;
19733;SDS011;10018;51.230;7.860;2023-05-16T09:17:05;8.27;;;1.30;;
19733;SDS011;10018;51.230;7.860;2023-05-16T09:19:39;7.67;;;1.53;;
19733;SDS011;10018;51.230;7.860;2023-05-16T09:22:07;7.03;;;1.60;;
19733;SDS011;10018;51.230;7.860;2023-05-16T09:24:41;9.30;;;2.13;;
19733;SDS011;10018;51.230;7.860;2023-05-16T09:27:08;6.97;;;1.40;;
19733;SDS011;10018;51.230;7.860;2023-05-16T09:29:41;7.27;;;1.90;;
19733;SDS011;10018;51.230;7.860;2023-05-16T09:32:17;7.87;;;1.60;;
19733;SDS011;10018;51.230;7.860;2023-05-16T09:37:16;8.53;;;1.70;;
19733;SDS011;10018;51.230;7.860;2023-05-16T09:39:50;8.73;;;1.43;;
19733;SDS011;10018;51.230;7.860;2023-05-16T09:42:17;7.73;;;1.90;;
19733;SDS011;10018;51.230;7.860;2023-05-16T09:44:48;10.17;;;2.20;;
19733;SDS011;10018;51.230;7.860;2023-05-16T09:47:15;9.73;;;1.87;;
19733;SDS011;10018;51.230;7.860;2023-05-16T09:49:44;7.90;;;2.10;;
19733;SDS011;10018;51.230;7.860;2023-05-16T09:52:12;6.30;;;1.67;;
19733;SDS011;10018;51.230;7.860;2023-05-16T09:54:40;10.33;;;2.23;;
19733;SDS011;10018;51.230;7.860;2023-05-16T09:57:05;6.50;;;1.60;;
19733;SDS011;10018;51.230;7.860;2023-05-16T09:59:38;7.80;;;1.70;;
19733;SDS011;10018;51.230;7.860;2023-05-16T10:02:04;7.43;;;1.40;;
19733;SDS011;10018;51.230;7.860;2023-05-16T10:04:32;7.17;;;1.47;;
19733;SDS011;10018;51.230;7.860;2023-05-16T10:07:00;5.47;;;1.50;;
19733;SDS011;10018;51.230;7.860;2023-05-16T10:09:28;5.13;;;1.30;;
19733;SDS011;10018;51.230;7.860;2023-05-16T10:12:01;8.33;;;1.40;;
19733;SDS011;10018;51.230;7.860;2023-05-16T10:14:29;9.67;;;1.33;;
19733;SDS011;10018;51.230;7.860;2023-05-16T10:17:02;9.60;;;1.40;;
19733;SDS011;10018;51.230;7.860;2023-05-16T10:19:35;6.90;;;1.90;;
19733;SDS011;10018;51.230;7.860;2023-05-16T10:22:05;10.30;;;2.00;;
19733;SDS011;10018;51.230;7.860;2023-05-16T10:24:36;10.50;;;2.00;;
19733;SDS011;10018;51.230;7.860;2023-05-16T10:27:02;6.57;;;1.90;;
19733;SDS011;10018;51.230;7.860;2023-05-16T10:29:29;7.23;;;1.90;;
19733;SDS011;10018;51.230;7.860;2023-05-16T10:31:58;9.87;;;1.60;;
19733;SDS011;10018;51.230;7.860;2023-05-16T10:34:24;6.27;;;1.70;;
19733;SDS011;10018;51.230;7.860;2023-05-16T10:36:52;10.23;;;1.80;;
19733;SDS011;10018;51.230;7.860;2023-05-16T10:39:18;9.87;;;1.50;;
19733;SDS011;10018;51.230;7.860;2023-05-16T10:41:45;7.53;;;1.33;;
19733;SDS011;10018;51.230;7.860;2023-05-16T10:44:11;6.17;;;1.20;;
19733;SDS011;10018;51.230;7.860;2023-05-16T10:46:40;6.80;;;1.30;;
19733;SDS011;10018;51.230;7.860;2023-05-16T10:49:21;3.93;;;1.00;;
19733;SDS011;10018;51.230;7.860;2023-05-16T10:52:01;6.97;;;1.00;;
19733;SDS011;10018;51.230;7.860;2023-05-16T10:54:33;5.27;;;1.10;;
19733;SDS011;10018;51.230;7.860;2023-05-16T10:57:10;6.40;;;1.30;;
19733;SDS011;10018;51.230;7.860;2023-05-16T10:59:44;5.67;;;1.20;;
19733;SDS011;10018;51.230;7.860;2023-05-16T11:02:39;4.60;;;1.10;;
19733;SDS011;10018;51.230;7.860;2023-05-16T11:05:03;6.23;;;1.20;;
19733;SDS011;10018;51.230;7.860;2023-05-16T11:07:34;6.80;;;1.10;;
19733;SDS011;10018;51.230;7.860;2023-05-16T11:12:35;6.47;;;0.93;;
19733;SDS011;10018;51.230;7.860;2023-05-16T11:15:16;5.13;;;0.90;;
19733;SDS011;10018;51.230;7.860;2023-05-16T11:17:41;5.30;;;1.40;;
19733;SDS011;10018;51.230;7.860;2023-05-16T11:20:07;3.97;;;1.50;;
19733;SDS011;10018;51.230;7.860;2023-05-16T11:22:50;6.50;;;1.20;;
19733;SDS011;10018;51.230;7.860;2023-05-16T11:25:16;10.13;;;1.57;;
19733;SDS011;10018;51.230;7.860;2023-05-16T11:28:04;8.47;;;1.57;;
19733;SDS011;10018;51.230;7.860;2023-05-16T11:30:32;6.67;;;1.27;;
19733;SDS011;10018;51.230;7.860;2023-05-16T11:32:57;7.57;;;1.27;;
19733;SDS011;10018;51.230;7.860;2023-05-16T11:35:23;5.90;;;1.17;;
19733;SDS011;10018;51.230;7.860;2023-05-16T11:37:49;6.53;;;1.30;;
19733;SDS011;10018;51.230;7.860;2023-05-16T11:40:17;5.13;;;1.20;;
19733;SDS011;10018;51.230;7.860;2023-05-16T11:42:46;4.67;;;1.10;;
19733;SDS011;10018;51.230;7.860;2023-05-16T11:45:16;6.53;;;1.20;;
19733;SDS011;10018;51.230;7.860;2023-05-16T11:47:43;5.57;;;1.27;;
19733;SDS011;10018;51.230;7.860;2023-05-16T11:50:21;3.67;;;1.10;;
19733;SDS011;10018;51.230;7.860;2023-05-16T11:52:50;5.07;;;1.20;;
19733;SDS011;10018;51.230;7.860;2023-05-16T11:55:18;11.00;;;1.67;;
19733;SDS011;10018;51.230;7.860;2023-05-16T11:57:45;5.50;;;1.30;;
19733;SDS011;10018;51.230;7.860;2023-05-16T12:00:15;4.77;;;1.37;;
19733;SDS011;10018;51.230;7.860;2023-05-16T12:02:52;5.60;;;1.50;;
19733;SDS011;10018;51.230;7.860;2023-05-16T12:05:18;5.90;;;1.10;;
19733;SDS011;10018;51.230;7.860;2023-05-16T12:07:49;5.97;;;1.20;;
19733;SDS011;10018;51.230;7.860;2023-05-16T12:10:15;6.57;;;1.53;;
19733;SDS011;10018;51.230;7.860;2023-05-16T12:12:43;7.87;;;1.60;;
19733;SDS011;10018;51.230;7.860;2023-05-16T12:15:10;7.30;;;1.90;;
19733;SDS011;10018;51.230;7.860;2023-05-16T12:17:37;5.00;;;1.60;;
19733;SDS011;10018;51.230;7.860;2023-05-16T12:20:04;7.70;;;1.50;;
19733;SDS011;10018;51.230;7.860;2023-05-16T12:22:31;6.40;;;1.83;;
19733;SDS011;10018;51.230;7.860;2023-05-16T12:24:58;7.83;;;1.50;;
19733;SDS011;10018;51.230;7.860;2023-05-16T12:27:24;6.40;;;1.90;;
19733;SDS011;10018;51.230;7.860;2023-05-16T12:29:51;6.00;;;1.50;;
19733;SDS011;10018;51.230;7.860;2023-05-16T12:32:17;5.30;;;1.17;;
19733;SDS011;10018;51.230;7.860;2023-05-16T12:34:50;6.70;;;1.40;;
19733;SDS011;10018;51.230;7.860;2023-05-16T12:37:16;3.93;;;1.17;;
19733;SDS011;10018;51.230;7.860;2023-05-16T12:39:43;5.53;;;1.23;;
19733;SDS011;10018;51.230;7.860;2023-05-16T12:42:12;4.70;;;1.33;;
19733;SDS011;10018;51.230;7.860;2023-05-16T12:44:43;6.20;;;1.20;;
19733;SDS011;10018;51.230;7.860;2023-05-16T12:47:10;8.43;;;1.87;;
19733;SDS011;10018;51.230;7.860;2023-05-16T12:49:43;4.47;;;1.50;;
19733;SDS011;10018;51.230;7.860;2023-05-16T12:52:10;5.57;;;1.30;;
19733;SDS011;10018;51.230;7.860;2023-05-16T12:54:43;5.53;;;1.33;;
19733;SDS011;10018;51.230;7.860;2023-05-16T12:57:11;5.37;;;1.40;;
19733;SDS011;10018;51.230;7.860;2023-05-16T12:59:36;7.03;;;1.37;;
19733;SDS011;10018;51.230;7.860;2023-05-16T13:02:02;3.60;;;1.17;;
19733;SDS011;10018;51.230;7.860;2023-05-16T13:04:28;3.77;;;1.17;;
19733;SDS011;10018;51.230;7.860;2023-05-16T13:06:54;3.90;;;1.20;;
19733;SDS011;10018;51.230;7.860;2023-05-16T13:09:19;4.97;;;1.17;;
19733;SDS011;10018;51.230;7.860;2023-05-16T13:11:45;5.93;;;1.60;;
19733;SDS011;10018;51.230;7.860;2023-05-16T13:14:11;8.87;;;1.53;;
19733;SDS011;10018;51.230;7.860;2023-05-16T13:16:36;6.80;;;1.40;;
19733;SDS011;10018;51.230;7.860;2023-05-16T13:19:02;5.97;;;1.33;;
19733;SDS011;10018;51.230;7.860;2023-05-16T13:21:29;7.10;;;1.50;;
19733;SDS011;10018;51.230;7.860;2023-05-16T13:23:55;6.63;;;1.10;;
19733;SDS011;10018;51.230;7.860;2023-05-16T13:26:24;5.93;;;1.63;;
19733;SDS011;10018;51.230;7.860;2023-05-16T13:28:50;7.10;;;1.53;;
19733;SDS011;10018;51.230;7.860;2023-05-16T13:31:17;5.00;;;1.30;;
19733;SDS011;10018;51.230;7.860;2023-05-16T13:33:46;4.23;;;1.40;;
19733;SDS011;10018;51.230;7.860;2023-05-16T13:36:11;4.20;;;1.10;;
19733;SDS011;10018;51.230;7.860;2023-05-16T13:38:37;2.70;;;0.83;;
19733;SDS011;10018;51.230;7.860;2023-05-16T13:41:03;4.57;;;1.20;;
19733;SDS011;10018;51.230;7.860;2023-05-16T13:43:28;3.53;;;1.20;;
19733;SDS011;10018;51.230;7.860;2023-05-16T13:45:54;4.83;;;1.27;;
19733;SDS011;10018;51.230;7.860;2023-05-16T13:48:20;4.83;;;1.00;;
19733;SDS011;10018;51.230;7.860;2023-05-16T13:50:45;8.30;;;1.67;;
19733;SDS011;10018;51.230;7.860;2023-05-16T13:53:11;5.30;;;1.20;;
19733;SDS011;10018;51.230;7.860;2023-05-16T13:55:36;6.07;;;1.40;;
19733;SDS011;10018;51.230;7.860;2023-05-16T13:58:02;8.20;;;1.57;;
19733;SDS011;10018;51.230;7.860;2023-05-16T14:00:28;4.67;;;1.30;;
19733;SDS011;10018;51.230;7.860;2023-05-16T14:02:54;5.67;;;1.37;;
19733;SDS011;10018;51.230;7.860;2023-05-16T14:05:20;9.27;;;1.80;;
19733;SDS011;10018;51.230;7.860;2023-05-16T14:07:46;8.47;;;1.43;;
19733;SDS011;10018;51.230;7.860;2023-05-16T14:10:11;7.80;;;1.50;;
19733;SDS011;10018;51.230;7.860;2023-05-16T14:12:37;4.80;;;1.50;;
19733;SDS011;10018;51.230;7.860;2023-05-16T14:15:04;5.47;;;1.37;;
19733;SDS011;10018;51.230;7.860;2023-05-16T14:17:30;5.60;;;1.37;;
19733;SDS011;10018;51.230;7.860;2023-05-16T14:19:56;6.73;;;1.33;;
19733;SDS011;10018;51.230;7.860;2023-05-16T14:22:22;5.97;;;1.20;;
19733;SDS011;10018;51.230;7.860;2023-05-16T14:24:47;7.23;;;1.57;;
19733;SDS011;10018;51.230;7.860;2023-05-16T14:27:13;7.27;;;1.60;;
19733;SDS011;10018;51.230;7.860;2023-05-16T14:29:40;4.43;;;1.43;;
19733;SDS011;10018;51.230;7.860;2023-05-16T14:32:09;5.17;;;1.00;;
19733;SDS011;10018;51.230;7.860;2023-05-16T14:34:36;5.83;;;1.30;;
19733;SDS011;10018;51.230;7.860;2023-05-16T14:37:02;7.03;;;1.20;;
19733;SDS011;10018;51.230;7.860;2023-05-16T14:39:27;5.00;;;1.30;;
19733;SDS011;10018;51.230;7.860;2023-05-16T14:41:53;7.97;;;1.57;;
19733;SDS011;10018;51.230;7.860;2023-05-16T14:44:19;4.63;;;1.00;;
19733;SDS011;10018;51.230;7.860;2023-05-16T14:46:45;5.67;;;1.00;;
19733;SDS011;10018;51.230;7.860;2023-05-16T14:49:11;5.03;;;1.27;;
19733;SDS011;10018;51.230;7.860;2023-05-16T14:51:37;2.83;;;0.83;;
19733;SDS011;10018;51.230;7.860;2023-05-16T14:54:02;4.87;;;1.03;;
19733;SDS011;10018;51.230;7.860;2023-05-16T14:56:29;4.23;;;0.83;;
19733;SDS011;10018;51.230;7.860;2023-05-16T14:58:55;4.10;;;1.20;;